createdAt,value
2023-01-17T00:00:03.676Z,71.80
2023-01-17T00:02:35.909Z,71.71
2023-01-17T00:05:18.505Z,71.38
2023-01-17T00:08:00.800Z,71.03
2023-01-17T00:10:31.631Z,71.25
2023-01-17T00:13:03.475Z,71.30
2023-01-17T00:15:37.302Z,71.40
2023-01-17T00:18:07.313Z,71.71
2023-01-17T00:20:49.854Z,71.49
2023-01-17T00:23:34.608Z,71.58
2023-01-17T00:26:07.703Z,71.31
2023-01-17T00:28:36.931Z,71.50
2023-01-17T00:31:08.222Z,71.50
2023-01-17T00:33:36.387Z,71.40
2023-01-17T00:36:05.410Z,71.68
2023-01-17T00:38:35.553Z,71.82
2023-01-17T00:41:04.353Z,72.00
2023-01-17T00:43:47.386Z,72.16
2023-01-17T00:46:33.292Z,72.39
2023-01-17T00:49:15.750Z,72.19
2023-01-17T00:51:58.132Z,71.94
2023-01-17T00:54:40.601Z,71.71
2023-01-17T00:57:23.301Z,71.87
2023-01-17T01:00:06.185Z,71.59
2023-01-17T01:02:52.309Z,71.50
2023-01-17T01:05:35.408Z,71.65
2023-01-17T01:08:18.421Z,71.90
2023-01-17T01:11:02.474Z,71.67
2023-01-17T01:13:46.377Z,71.36
2023-01-17T01:16:30.085Z,70.84
2023-01-17T01:19:15.339Z,70.69
2023-01-17T01:21:58.113Z,70.74
2023-01-17T01:24:40.705Z,70.41
2023-01-17T01:27:23.181Z,70.38
2023-01-17T01:30:05.744Z,69.79
2023-01-17T01:32:48.136Z,70.50
2023-01-17T01:35:21.226Z,70.38
2023-01-17T01:37:51.110Z,70.30
2023-01-17T01:40:21.891Z,70.24
2023-01-17T01:42:53.364Z,70.44
2023-01-17T01:45:25.859Z,70.04
2023-01-17T01:48:03.218Z,70.49
2023-01-17T01:50:39.123Z,70.59
2023-01-17T01:53:10.481Z,70.19
2023-01-17T01:55:45.579Z,70.16
2023-01-17T01:58:21.766Z,70.75
2023-01-17T02:00:52.348Z,70.82
2023-01-17T02:03:29.422Z,71.26
2023-01-17T02:06:10.365Z,71.30
2023-01-17T02:08:40.328Z,71.28
2023-01-17T02:11:10.293Z,71.08
2023-01-17T02:13:40.230Z,71.09
2023-01-17T02:16:24.578Z,71.10
2023-01-17T02:19:06.190Z,71.44
2023-01-17T02:21:47.957Z,71.62
2023-01-17T02:24:42.132Z,71.54
2023-01-17T02:27:27.202Z,71.63
2023-01-17T02:30:35.608Z,72.80
2023-01-17T02:33:17.324Z,72.73
2023-01-17T02:35:59.577Z,73.16
2023-01-17T02:38:41.512Z,73.29
2023-01-17T02:41:20.909Z,73.65
2023-01-17T02:43:53.423Z,73.90
2023-01-17T02:46:25.979Z,74.02
2023-01-17T02:48:58.891Z,73.68
2023-01-17T02:51:50.049Z,73.49
2023-01-17T02:54:38.692Z,73.74
2023-01-17T02:57:34.601Z,73.81
2023-01-17T03:00:17.503Z,73.89
2023-01-17T03:03:01.540Z,73.83
2023-01-17T03:05:39.461Z,74.05
2023-01-17T03:08:10.289Z,73.70
2023-01-17T03:10:40.115Z,73.80
2023-01-17T03:13:09.998Z,73.93
2023-01-17T03:15:41.337Z,73.74
2023-01-17T03:18:18.011Z,74.04
2023-01-17T03:20:47.875Z,73.83
2023-01-17T03:23:17.719Z,73.70
2023-01-17T03:25:47.581Z,73.62
2023-01-17T03:28:17.416Z,73.77
2023-01-17T03:30:47.377Z,73.61
2023-01-17T03:33:21.706Z,73.48
2023-01-17T03:35:51.565Z,73.61
2023-01-17T03:38:21.362Z,73.50
2023-01-17T03:40:51.290Z,73.34
2023-01-17T03:43:21.241Z,73.18
2023-01-17T03:45:54.492Z,73.49
2023-01-17T03:48:27.015Z,73.67
2023-01-17T03:50:56.862Z,73.25
2023-01-17T03:53:27.121Z,73.08
2023-01-17T03:55:57.015Z,73.17
2023-01-17T03:58:26.980Z,73.39
2023-01-17T04:00:56.959Z,73.81
2023-01-17T04:03:29.508Z,73.39
2023-01-17T04:05:59.378Z,73.75
2023-01-17T04:08:29.486Z,73.50
2023-01-17T04:10:59.533Z,73.98
2023-01-17T04:13:29.439Z,74.17
2023-01-17T04:15:59.584Z,74.91
2023-01-17T04:18:32.035Z,74.46
2023-01-17T04:21:01.845Z,74.81
2023-01-17T04:23:32.076Z,75.02
2023-01-17T04:26:03.683Z,74.82
2023-01-17T04:28:33.554Z,75.47
2023-01-17T04:31:03.494Z,75.12
2023-01-17T04:33:36.029Z,75.08
2023-01-17T04:36:06.026Z,75.44
2023-01-17T04:38:35.840Z,75.00
2023-01-17T04:41:05.714Z,74.99
2023-01-17T04:43:35.612Z,74.90
2023-01-17T04:46:10.125Z,74.65
2023-01-17T04:48:42.666Z,75.19
2023-01-17T04:51:12.673Z,74.65
2023-01-17T04:53:42.613Z,74.75
2023-01-17T04:56:12.445Z,74.22
2023-01-17T04:58:42.392Z,74.69
2023-01-17T05:01:12.749Z,75.08
2023-01-17T05:03:45.243Z,74.59
2023-01-17T05:06:15.083Z,75.07
2023-01-17T05:08:45.013Z,75.28
2023-01-17T05:11:14.853Z,75.22
2023-01-17T05:13:44.691Z,75.89
2023-01-17T05:16:14.825Z,75.43
2023-01-17T05:18:47.202Z,75.39
2023-01-17T05:21:17.053Z,75.40
2023-01-17T05:23:46.943Z,75.24
2023-01-17T05:26:17.123Z,74.69
2023-01-17T05:28:47.004Z,74.82
2023-01-17T05:31:17.001Z,74.79
2023-01-17T05:33:49.489Z,74.45
2023-01-17T05:36:21.151Z,74.65
2023-01-17T05:38:51.104Z,74.86
2023-01-17T05:41:20.963Z,74.66
2023-01-17T05:43:50.919Z,73.85
2023-01-17T05:46:20.789Z,74.00
2023-01-17T05:48:53.212Z,74.07
2023-01-17T05:51:23.031Z,74.50
2023-01-17T05:53:52.882Z,74.58
2023-01-17T05:56:22.770Z,75.15
2023-01-17T05:58:52.583Z,74.95
2023-01-17T06:01:22.422Z,74.92
2023-01-17T06:03:54.874Z,74.98
2023-01-17T06:06:25.268Z,74.81
2023-01-17T06:08:55.092Z,74.49
2023-01-17T06:11:25.028Z,74.57
2023-01-17T06:13:54.948Z,74.55
2023-01-17T06:16:24.849Z,74.72
2023-01-17T06:18:57.344Z,74.77
2023-01-17T06:21:27.318Z,74.63
2023-01-17T06:23:58.020Z,74.79
2023-01-17T06:26:28.009Z,74.56
2023-01-17T06:28:57.866Z,75.03
2023-01-17T06:31:27.670Z,74.54
2023-01-17T06:34:00.134Z,74.24
2023-01-17T06:36:29.948Z,74.23
2023-01-17T06:38:59.861Z,74.36
2023-01-17T06:41:29.790Z,74.10
2023-01-17T06:43:59.796Z,74.04
2023-01-17T06:46:29.772Z,74.57
2023-01-17T06:49:02.216Z,73.93
2023-01-17T06:51:32.027Z,73.66
2023-01-17T06:54:01.822Z,73.96
2023-01-17T06:56:33.512Z,73.48
2023-01-17T06:59:03.366Z,73.67
2023-01-17T07:01:33.676Z,73.52
2023-01-17T07:04:06.643Z,73.46
2023-01-17T07:06:38.672Z,73.32
2023-01-17T07:09:08.533Z,73.37
2023-01-17T07:11:38.466Z,73.43
2023-01-17T07:14:08.282Z,73.27
2023-01-17T07:16:38.169Z,73.19
2023-01-17T07:19:10.649Z,72.93
2023-01-17T07:21:40.527Z,73.19
2023-01-17T07:24:11.314Z,73.04
2023-01-17T07:26:41.193Z,72.96
2023-01-17T07:29:11.154Z,72.47
2023-01-17T07:31:41.208Z,72.74
2023-01-17T07:34:14.403Z,72.39
2023-01-17T07:36:44.477Z,72.52
2023-01-17T07:39:14.500Z,72.57
2023-01-17T07:41:45.044Z,72.56
2023-01-17T07:44:15.105Z,72.23
2023-01-17T07:46:44.967Z,72.23
2023-01-17T07:49:17.433Z,72.19
2023-01-17T07:51:49.409Z,72.51
2023-01-17T07:54:19.300Z,72.08
2023-01-17T07:56:49.148Z,72.49
2023-01-17T07:59:18.949Z,72.76
2023-01-17T08:01:48.939Z,72.57
2023-01-17T08:04:21.459Z,72.00
2023-01-17T08:06:51.785Z,72.06
2023-01-17T08:09:21.877Z,72.25
2023-01-17T08:11:51.811Z,72.18
2023-01-17T08:14:21.698Z,72.18
2023-01-17T08:16:51.659Z,71.76
2023-01-17T08:19:27.134Z,71.73
2023-01-17T08:21:57.075Z,71.80
2023-01-17T08:24:26.914Z,71.28
2023-01-17T08:26:57.366Z,71.75
2023-01-17T08:29:27.711Z,71.83
2023-01-17T08:31:57.929Z,71.41
2023-01-17T08:34:30.495Z,70.96
2023-01-17T08:37:00.311Z,71.04
2023-01-17T08:39:30.201Z,70.90
2023-01-17T08:42:00.129Z,69.99
2023-01-17T08:44:29.999Z,70.31
2023-01-17T08:47:00.024Z,69.66
2023-01-17T08:49:32.505Z,68.90
2023-01-17T08:52:02.399Z,68.37
2023-01-17T08:54:32.279Z,67.34
2023-01-17T08:57:03.434Z,66.11
2023-01-17T08:59:33.428Z,66.47
2023-01-17T09:02:15.039Z,64.79
2023-01-17T09:04:50.386Z,64.36
2023-01-17T09:07:24.462Z,63.85
2023-01-17T09:09:54.371Z,63.12
2023-01-17T09:12:24.500Z,62.50
2023-01-17T09:14:54.371Z,62.40
2023-01-17T09:17:24.344Z,63.62
2023-01-17T09:19:59.416Z,62.87
2023-01-17T09:22:29.668Z,62.24
2023-01-17T09:24:59.935Z,63.37
2023-01-17T09:27:29.812Z,62.61
2023-01-17T09:29:59.727Z,60.82
2023-01-17T09:32:29.544Z,59.81
2023-01-17T09:35:03.235Z,59.35
2023-01-17T09:37:33.171Z,58.67
2023-01-17T09:40:03.611Z,59.00
2023-01-17T09:42:39.729Z,58.55
2023-01-17T09:45:20.809Z,58.96
2023-01-17T09:47:55.017Z,58.66
2023-01-17T09:50:36.075Z,58.54
2023-01-17T09:53:15.311Z,58.14
2023-01-17T09:55:55.608Z,57.66
2023-01-17T09:58:35.204Z,57.33
2023-01-17T10:01:17.460Z,57.15
2023-01-17T10:04:15.537Z,57.26
2023-01-17T10:07:04.857Z,57.37
2023-01-17T10:09:55.923Z,56.45
2023-01-17T10:12:36.292Z,56.26
2023-01-17T10:15:31.211Z,56.10
2023-01-17T10:18:29.939Z,56.12
2023-01-17T10:21:08.845Z,56.38
2023-01-17T10:24:00.184Z,56.49
2023-01-17T10:26:30.547Z,56.25
2023-01-17T10:29:06.576Z,55.98
2023-01-17T10:31:46.309Z,56.09
2023-01-17T10:34:21.511Z,55.98
2023-01-17T10:37:00.437Z,55.45
2023-01-17T10:39:34.204Z,55.73
2023-01-17T10:42:16.235Z,56.24
2023-01-17T10:44:54.108Z,55.88
2023-01-17T10:47:28.007Z,56.83
2023-01-17T10:50:03.169Z,56.24
2023-01-17T10:52:43.289Z,55.19
2023-01-17T10:55:31.881Z,54.90
2023-01-17T10:58:01.876Z,54.43
2023-01-17T11:00:46.446Z,53.77
2023-01-17T11:03:20.855Z,53.40
2023-01-17T11:06:19.956Z,53.45
2023-01-17T11:08:56.501Z,51.79
2023-01-17T11:11:32.822Z,52.36
2023-01-17T11:14:07.616Z,51.15
2023-01-17T11:16:37.540Z,50.45
2023-01-17T11:19:11.419Z,50.04
2023-01-17T11:21:44.098Z,49.90
2023-01-17T11:24:23.410Z,50.38
2023-01-17T11:26:56.837Z,49.73
2023-01-17T11:29:36.903Z,49.64
2023-01-17T11:32:31.026Z,49.64
2023-01-17T11:35:25.662Z,49.25
2023-01-17T11:38:03.319Z,48.49
2023-01-17T11:40:38.898Z,48.22
2023-01-17T11:43:24.138Z,48.57
2023-01-17T11:46:07.588Z,47.33
2023-01-17T11:48:40.374Z,48.06
2023-01-17T11:51:28.306Z,48.03
2023-01-17T11:54:11.159Z,46.41
2023-01-17T11:56:44.286Z,45.18
2023-01-17T11:59:30.037Z,44.34
2023-01-17T12:02:44.416Z,43.72
2023-01-17T12:05:37.113Z,43.75
2023-01-17T12:08:20.807Z,44.21
2023-01-17T12:11:05.223Z,44.73
2023-01-17T12:14:01.546Z,45.49
2023-01-17T12:17:00.576Z,43.52
2023-01-17T12:20:01.203Z,41.91
2023-01-17T12:22:50.984Z,42.85
2023-01-17T12:25:43.078Z,44.28
2023-01-17T12:28:39.241Z,45.04
2023-01-17T12:31:27.108Z,46.40
2023-01-17T12:34:08.302Z,45.95
2023-01-17T12:36:49.618Z,45.63
2023-01-17T12:39:26.175Z,46.44
2023-01-17T12:42:04.331Z,45.21
2023-01-17T12:44:55.852Z,44.17
2023-01-17T12:47:25.749Z,44.57
2023-01-17T12:50:09.580Z,44.54
2023-01-17T12:52:55.539Z,43.85
2023-01-17T12:55:39.202Z,44.22
2023-01-17T12:58:18.061Z,43.63
2023-01-17T13:00:54.406Z,43.42
2023-01-17T13:03:34.329Z,42.95
2023-01-17T13:06:09.948Z,43.10
2023-01-17T13:08:46.551Z,42.96
2023-01-17T13:11:28.401Z,42.71
2023-01-17T13:14:00.081Z,43.61
2023-01-17T13:16:36.669Z,44.10
2023-01-17T13:19:18.531Z,44.96
2023-01-17T13:21:52.594Z,44.69
2023-01-17T13:24:29.451Z,44.40
2023-01-17T13:27:19.613Z,43.49
2023-01-17T13:30:07.082Z,43.81
2023-01-17T13:33:02.950Z,44.13
2023-01-17T13:35:43.713Z,44.92
2023-01-17T13:38:37.214Z,44.69
2023-01-17T13:41:19.356Z,44.91
2023-01-17T13:44:09.732Z,45.00
2023-01-17T13:47:01.203Z,45.48
2023-01-17T13:49:49.511Z,45.62
2023-01-17T13:52:38.299Z,45.98
2023-01-17T13:55:11.001Z,46.90
2023-01-17T13:57:46.327Z,46.14
2023-01-17T14:00:55.076Z,45.93
2023-01-17T14:04:01.001Z,45.90
2023-01-17T14:06:36.681Z,45.76
2023-01-17T14:09:15.954Z,45.81
2023-01-17T14:12:05.676Z,45.95
2023-01-17T14:14:53.714Z,45.45
2023-01-17T14:17:49.813Z,46.29
2023-01-17T14:20:58.044Z,46.43
2023-01-17T14:23:35.836Z,45.69
2023-01-17T14:26:25.168Z,45.22
2023-01-17T14:28:59.100Z,45.49
2023-01-17T14:31:30.719Z,44.95
2023-01-17T14:34:15.516Z,45.30
2023-01-17T14:36:45.413Z,44.76
2023-01-17T14:39:24.065Z,44.63
2023-01-17T14:41:55.074Z,45.06
2023-01-17T14:44:27.623Z,45.37
2023-01-17T14:46:58.204Z,45.46
2023-01-17T14:49:28.126Z,45.04
2023-01-17T14:52:02.394Z,45.42
2023-01-17T14:54:32.644Z,45.75
2023-01-17T14:57:18.155Z,45.86
2023-01-17T14:59:50.632Z,45.80
2023-01-17T15:02:21.874Z,45.81
2023-01-17T15:04:57.972Z,46.36
2023-01-17T15:07:28.967Z,47.09
2023-01-17T15:09:58.850Z,47.82
2023-01-17T15:12:28.798Z,47.83
2023-01-17T15:15:01.252Z,47.84
2023-01-17T15:17:31.100Z,48.05
2023-01-17T15:20:09.839Z,48.29
2023-01-17T15:22:40.089Z,48.22
2023-01-17T15:25:16.180Z,48.15
2023-01-17T15:27:46.449Z,48.75
2023-01-17T15:30:24.889Z,48.37
2023-01-17T15:32:55.103Z,48.06
2023-01-17T15:35:25.329Z,47.74
2023-01-17T15:37:58.335Z,47.90
2023-01-17T15:40:31.270Z,48.25
2023-01-17T15:43:05.258Z,48.22
2023-01-17T15:45:38.806Z,47.98
2023-01-17T15:48:38.768Z,48.47
2023-01-17T15:51:09.140Z,48.06
2023-01-17T15:53:42.548Z,48.52
2023-01-17T15:56:33.457Z,48.42
2023-01-17T15:59:29.793Z,48.80
2023-01-17T16:02:02.422Z,49.56
2023-01-17T16:04:37.440Z,50.22
2023-01-17T16:07:22.477Z,49.95
2023-01-17T16:09:52.851Z,49.30
2023-01-17T16:12:22.707Z,49.80
2023-01-17T16:15:10.892Z,49.93
2023-01-17T16:17:48.667Z,49.30
2023-01-17T16:20:25.421Z,49.89
2023-01-17T16:22:55.320Z,49.72
2023-01-17T16:25:32.357Z,49.84
2023-01-17T16:28:02.707Z,49.93
2023-01-17T16:30:33.779Z,50.09
2023-01-17T16:33:07.319Z,50.44
2023-01-17T16:35:37.770Z,50.22
2023-01-17T16:38:10.339Z,50.13
2023-01-17T16:40:43.991Z,50.21
2023-01-17T16:43:15.836Z,50.19
2023-01-17T16:45:49.230Z,50.09
2023-01-17T16:48:22.265Z,50.79
2023-01-17T16:50:54.439Z,50.41
2023-01-17T16:53:26.577Z,50.75
2023-01-17T16:55:59.576Z,50.93
2023-01-17T16:58:29.430Z,50.99
2023-01-17T17:01:00.412Z,50.99
2023-01-17T17:03:33.008Z,51.40
2023-01-17T17:06:04.188Z,51.31
2023-01-17T17:08:36.608Z,51.66
2023-01-17T17:11:13.292Z,51.96
2023-01-17T17:13:44.194Z,52.59
2023-01-17T17:16:16.541Z,53.01
2023-01-17T17:18:57.132Z,53.92
2023-01-17T17:21:27.887Z,54.05
2023-01-17T17:23:59.634Z,54.45
2023-01-17T17:26:34.183Z,54.38
2023-01-17T17:29:04.825Z,55.10
2023-01-17T17:31:34.994Z,55.60
2023-01-17T17:34:09.338Z,55.77
2023-01-17T17:36:40.016Z,55.91
2023-01-17T17:39:14.876Z,56.17
2023-01-17T17:41:46.770Z,56.08
2023-01-17T17:44:17.635Z,56.35
2023-01-17T17:46:49.314Z,56.57
2023-01-17T17:49:22.833Z,56.68
2023-01-17T17:51:52.823Z,56.58
2023-01-17T17:54:24.709Z,56.79
2023-01-17T17:56:54.551Z,57.01
2023-01-17T17:59:24.436Z,56.59
2023-01-17T18:01:54.669Z,56.09
2023-01-17T18:04:27.494Z,56.14
2023-01-17T18:07:00.010Z,55.81
2023-01-17T18:09:29.927Z,55.36
2023-01-17T18:12:00.421Z,55.29
2023-01-17T18:14:30.396Z,55.56
2023-01-17T18:17:00.321Z,55.31
2023-01-17T18:19:32.939Z,55.40
2023-01-17T18:22:03.814Z,55.39
2023-01-17T18:24:33.771Z,55.84
2023-01-17T18:27:03.731Z,55.71
2023-01-17T18:29:33.930Z,55.92
2023-01-17T18:32:03.851Z,55.59
2023-01-17T18:34:41.467Z,55.76
2023-01-17T18:37:11.561Z,55.94
2023-01-17T18:39:41.418Z,55.98
2023-01-17T18:42:11.927Z,54.97
2023-01-17T18:44:41.912Z,53.74
2023-01-17T18:47:13.122Z,53.47
2023-01-17T18:49:45.732Z,53.85
2023-01-17T18:52:15.800Z,53.93
2023-01-17T18:54:45.862Z,53.68
2023-01-17T18:57:15.801Z,53.74
2023-01-17T18:59:45.781Z,54.14
2023-01-17T19:02:15.855Z,54.77
2023-01-17T19:04:48.429Z,54.66
2023-01-17T19:07:18.413Z,54.93
2023-01-17T19:09:48.346Z,55.21
2023-01-17T19:12:20.009Z,56.23
2023-01-17T19:14:50.663Z,57.57
2023-01-17T19:17:20.790Z,58.61
2023-01-17T19:19:55.406Z,59.73
2023-01-17T19:22:27.037Z,60.79
2023-01-17T19:24:57.076Z,62.14
2023-01-17T19:27:27.057Z,62.34
2023-01-17T19:29:56.968Z,62.72
2023-01-17T19:32:26.997Z,64.57
2023-01-17T19:34:59.579Z,64.75
2023-01-17T19:37:29.641Z,65.35
2023-01-17T19:39:59.541Z,65.17
2023-01-17T19:42:29.547Z,66.18
2023-01-17T19:44:59.456Z,66.98
2023-01-17T19:47:29.362Z,67.97
2023-01-17T19:50:02.047Z,67.77
2023-01-17T19:52:32.995Z,68.59
2023-01-17T19:55:03.032Z,69.42
2023-01-17T19:57:34.913Z,69.46
2023-01-17T20:00:06.109Z,69.53
2023-01-17T20:02:42.973Z,70.89
2023-01-17T20:05:15.797Z,70.75
2023-01-17T20:07:45.778Z,71.57
2023-01-17T20:10:15.751Z,70.86
2023-01-17T20:12:45.737Z,71.21
2023-01-17T20:15:15.697Z,70.98
2023-01-17T20:17:45.738Z,71.59
2023-01-17T20:20:19.372Z,71.23
2023-01-17T20:22:49.369Z,71.98
2023-01-17T20:25:19.534Z,71.80
2023-01-17T20:27:49.512Z,72.06
2023-01-17T20:30:24.529Z,72.02
2023-01-17T20:32:55.654Z,72.46
2023-01-17T20:35:28.799Z,72.90
2023-01-17T20:37:58.968Z,72.42
2023-01-17T20:40:29.194Z,72.72
2023-01-17T20:42:59.114Z,72.57
2023-01-17T20:45:29.129Z,72.69
2023-01-17T20:47:59.345Z,72.77
2023-01-17T20:50:31.974Z,73.21
2023-01-17T20:53:01.885Z,73.07
2023-01-17T20:55:31.807Z,73.48
2023-01-17T20:58:01.928Z,73.56
2023-01-17T21:00:31.989Z,73.05
2023-01-17T21:03:03.745Z,73.67
2023-01-17T21:05:36.549Z,73.57
2023-01-17T21:08:06.929Z,73.67
2023-01-17T21:10:38.283Z,73.80
2023-01-17T21:13:08.166Z,74.25
2023-01-17T21:15:44.201Z,74.69
2023-01-17T21:18:14.400Z,74.91
2023-01-17T21:20:47.220Z,75.15
2023-01-17T21:23:20.599Z,75.27
2023-01-17T21:25:59.754Z,74.72
2023-01-17T21:28:32.518Z,75.34
2023-01-17T21:31:02.508Z,75.49
2023-01-17T21:33:32.434Z,74.79
2023-01-17T21:36:12.136Z,74.87
2023-01-17T21:38:42.180Z,74.83
2023-01-17T21:41:12.052Z,74.45
2023-01-17T21:43:41.897Z,75.03
2023-01-17T21:46:12.016Z,75.61
2023-01-17T21:48:44.479Z,75.96
2023-01-17T21:51:17.386Z,76.15
2023-01-17T21:53:47.311Z,75.78
2023-01-17T21:56:30.071Z,75.83
2023-01-17T21:59:01.628Z,77.04
2023-01-17T22:01:35.201Z,76.44
2023-01-17T22:04:06.634Z,76.64
2023-01-17T22:06:39.376Z,76.66
2023-01-17T22:09:09.572Z,76.74
2023-01-17T22:11:39.769Z,77.37
2023-01-17T22:14:10.070Z,76.81
2023-01-17T22:16:40.563Z,76.44
2023-01-17T22:19:10.454Z,76.19
2023-01-17T22:21:43.840Z,76.02
2023-01-17T22:24:16.724Z,75.85
2023-01-17T22:26:46.729Z,76.35
2023-01-17T22:29:18.972Z,76.71
2023-01-17T22:31:49.284Z,76.66
2023-01-17T22:34:19.276Z,76.70
2023-01-17T22:36:51.775Z,77.12
2023-01-17T22:39:21.809Z,76.87
2023-01-17T22:41:51.737Z,77.39
2023-01-17T22:44:21.590Z,77.22
2023-01-17T22:46:51.554Z,77.73
2023-01-17T22:49:23.416Z,77.86
2023-01-17T22:51:55.899Z,77.54
2023-01-17T22:54:25.825Z,77.45
2023-01-17T22:56:55.723Z,77.82
2023-01-17T22:59:25.783Z,77.57
2023-01-17T23:01:56.590Z,77.84
2023-01-17T23:04:26.573Z,77.59
2023-01-17T23:06:59.058Z,77.95
2023-01-17T23:09:29.292Z,77.62
2023-01-17T23:11:59.227Z,77.87
2023-01-17T23:14:53.165Z,77.70
2023-01-17T23:17:37.749Z,77.43
2023-01-17T23:20:09.372Z,77.36
2023-01-17T23:22:41.885Z,77.25
2023-01-17T23:25:14.345Z,78.41
2023-01-17T23:27:58.309Z,78.59
2023-01-17T23:30:34.488Z,78.29
2023-01-17T23:33:06.864Z,77.66
2023-01-17T23:35:41.774Z,77.69
2023-01-17T23:38:29.806Z,78.20
2023-01-17T23:41:17.112Z,78.66
2023-01-17T23:43:46.924Z,77.92
2023-01-17T23:46:17.009Z,78.54
2023-01-17T23:48:46.914Z,78.51
2023-01-17T23:51:17.235Z,77.79
2023-01-17T23:53:52.196Z,78.37
2023-01-17T23:56:25.093Z,78.19
2023-01-17T23:58:54.978Z,78.28
